Time;durP1;ratioP1;P1;durP2;ratioP2;P2;SDS_P1;SDS_P2;PMS_P1;PMS_P2;Temp;Humidity;BMP_temperature;BMP_pressure;BME280_temperature;BME280_humidity;BME280_pressure;Samples;Min_cycle;Max_cycle;Signal;HPM_P1;HPM_P2
2022/11/10 00:00:45;;;;;;;;;20.33;19.33;;;;;-145.03;100.00;62373.16;5033091;28;45614;-75
2022/11/10 00:03:11;;;;;;;;;23.33;20.67;;;;;-145.03;100.00;62373.16;5034060;28;47377;-76
2022/11/10 00:05:38;;;;;;;;;21.33;19.33;;;;;-145.03;100.00;62373.16;5034216;28;45574;-75
2022/11/10 00:08:09;;;;;;;;;22.67;20.00;;;;;-145.03;100.00;62373.16;5029494;28;45541;-76
2022/11/10 00:11:00;;;;;;;;;24.00;21.00;;;;;-145.03;100.00;62373.16;5016986;28;48344;-76
2022/11/10 00:13:30;;;;;;;;;24.00;19.00;;;;;-145.03;100.00;62373.16;5034414;28;45444;-92
2022/11/10 00:18:42;;;;;;;;;22.33;17.00;;;;;-145.03;100.00;62373.16;5036892;28;45543;-93
2022/11/10 00:21:10;;;;;;;;;23.33;19.00;;;;;-145.03;100.00;62373.16;5036174;28;45462;-92
2022/11/10 00:23:35;;;;;;;;;16.00;16.00;;;;;-145.03;100.00;62373.16;5035756;28;45443;-92
2022/11/10 00:26:02;;;;;;;;;19.00;18.67;;;;;-145.03;100.00;62373.16;5048881;28;45613;-92
2022/11/10 00:28:30;;;;;;;;;18.67;18.67;;;;;-145.03;100.00;62373.16;5039810;28;45348;-93
2022/11/10 00:30:56;;;;;;;;;20.67;16.00;;;;;-145.03;100.00;62373.16;5039665;28;46199;-92
2022/11/10 00:33:22;;;;;;;;;16.33;16.00;;;;;-145.03;100.00;62373.16;5035617;28;45744;-93
2022/11/10 00:35:47;;;;;;;;;20.67;18.33;;;;;-145.03;100.00;62373.16;5028930;28;45370;-93
2022/11/10 00:38:12;;;;;;;;;20.00;17.33;;;;;-145.03;100.00;62373.16;5045352;28;45371;-93
2022/11/10 00:40:38;;;;;;;;;22.00;17.67;;;;;-145.03;100.00;62373.16;5036428;28;45999;-92
2022/11/10 00:43:03;;;;;;;;;15.33;15.33;;;;;-145.03;100.00;62373.16;5030303;28;45480;-91
2022/11/10 00:45:28;;;;;;;;;20.33;18.33;;;;;-145.03;100.00;62373.16;5036395;28;45417;-92
2022/11/10 00:47:54;;;;;;;;;20.67;17.33;;;;;-145.03;100.00;62373.16;5032393;28;45626;-93
2022/11/10 00:50:19;;;;;;;;;17.67;17.67;;;;;-145.03;100.00;62373.16;5038086;28;45517;-92
2022/11/10 00:52:45;;;;;;;;;15.33;13.00;;;;;-145.03;100.00;62373.16;5028941;28;45493;-92
2022/11/10 00:55:10;;;;;;;;;21.00;18.00;;;;;-145.03;100.00;62373.16;5036507;28;45529;-93
2022/11/10 00:57:36;;;;;;;;;19.00;17.00;;;;;-145.03;100.00;62373.16;5018753;28;45988;-92
2022/11/10 01:00:01;;;;;;;;;15.33;15.33;;;;;-145.03;100.00;62373.16;5035795;28;46666;-92
2022/11/10 01:02:27;;;;;;;;;19.00;18.00;;;;;-145.03;100.00;62373.16;5044882;28;45483;-93
2022/11/10 01:04:53;;;;;;;;;18.00;17.67;;;;;-145.03;100.00;62373.16;5038204;28;45508;-93
2022/11/10 01:07:19;;;;;;;;;17.00;17.00;;;;;-145.03;100.00;62373.16;5049209;28;45518;-93
2022/11/10 01:09:44;;;;;;;;;17.33;15.67;;;;;-145.03;100.00;62373.16;5001332;28;46054;-92
2022/11/10 01:12:10;;;;;;;;;19.33;17.67;;;;;-145.03;100.00;62373.16;5037865;28;45434;-90
2022/11/10 01:14:36;;;;;;;;;16.67;15.67;;;;;-145.03;100.00;62373.16;5038542;28;45489;-92
2022/11/10 01:17:01;;;;;;;;;17.00;15.00;;;;;-145.03;100.00;62373.16;5048099;28;45627;-91
2022/11/10 01:19:29;;;;;;;;;14.33;13.00;;;;;-145.03;100.00;62373.16;5022628;28;47334;-91
2022/11/10 01:21:54;;;;;;;;;12.00;12.00;;;;;-145.03;100.00;62373.16;5022387;28;45326;-92
2022/11/10 01:24:20;;;;;;;;;14.33;14.33;;;;;-145.03;100.00;62373.16;5037746;28;45569;-91
2022/11/10 01:26:47;;;;;;;;;18.67;17.00;;;;;-145.03;100.00;62373.16;5038720;28;45720;-91
2022/11/10 01:29:13;;;;;;;;;13.33;13.33;;;;;-145.03;100.00;62373.16;5033929;28;47990;-91
2022/11/10 01:31:38;;;;;;;;;16.33;16.33;;;;;-145.03;100.00;62373.16;5036517;28;45519;-91
2022/11/10 01:34:04;;;;;;;;;12.67;12.67;;;;;-145.03;100.00;62373.16;5020237;28;45462;-91
2022/11/10 01:36:29;;;;;;;;;17.00;13.00;;;;;-145.03;100.00;62373.16;5037557;28;45330;-91
2022/11/10 01:38:55;;;;;;;;;12.33;10.67;;;;;-145.03;100.00;62373.16;5036538;28;46014;-91
2022/11/10 01:41:20;;;;;;;;;16.00;14.33;;;;;-145.03;100.00;62373.16;5039366;28;45434;-91
2022/11/10 01:43:46;;;;;;;;;16.33;15.67;;;;;-145.03;100.00;62373.16;5037184;28;45617;-91
2022/11/10 01:46:12;;;;;;;;;13.33;12.00;;;;;-145.03;100.00;62373.16;5038159;28;45446;-91
2022/11/10 01:48:46;;;;;;;;;9.00;7.67;;;;;-145.03;100.00;62373.16;5036603;28;45458;-89
2022/11/10 01:51:31;;;;;;;;;15.00;14.33;;;;;-145.03;100.00;62373.16;5035710;28;45558;-91
2022/11/10 01:54:05;;;;;;;;;13.33;13.33;;;;;-145.03;100.00;62373.16;5019627;28;45363;-91
2022/11/10 01:56:35;;;;;;;;;14.00;14.00;;;;;-145.03;100.00;62373.16;5039076;28;45548;-91
2022/11/10 01:59:05;;;;;;;;;14.67;14.67;;;;;-145.03;100.00;62373.16;5035463;28;47445;-91
2022/11/10 02:01:31;;;;;;;;;10.67;9.67;;;;;-145.03;100.00;62373.16;5039588;28;45650;-91
2022/11/10 02:04:00;;;;;;;;;17.00;15.33;;;;;-145.03;100.00;62373.16;5019755;28;45405;-91
2022/11/10 02:06:36;;;;;;;;;18.67;13.00;;;;;-145.03;100.00;62373.16;5044267;28;45392;-92
2022/11/10 02:09:03;;;;;;;;;12.00;12.00;;;;;-145.03;100.00;62373.16;5035795;28;47521;-91
2022/11/10 02:11:29;;;;;;;;;11.33;9.33;;;;;-145.03;100.00;62373.16;5038327;28;46143;-91
2022/11/10 02:13:55;;;;;;;;;14.00;14.00;;;;;-145.03;100.00;62373.16;5038314;28;45359;-91
2022/11/10 02:16:22;;;;;;;;;12.67;12.67;;;;;-145.03;100.00;62373.16;5036718;28;45466;-90
2022/11/10 02:18:47;;;;;;;;;17.00;15.33;;;;;-145.03;100.00;62373.16;5017789;28;47447;-91
2022/11/10 02:21:16;;;;;;;;;13.33;13.33;;;;;-145.03;100.00;62373.16;5037373;28;45417;-89
2022/11/10 02:23:45;;;;;;;;;14.33;13.00;;;;;-145.03;100.00;62373.16;5019353;28;45504;-91
2022/11/10 02:26:11;;;;;;;;;15.00;14.00;;;;;-145.03;100.00;62373.16;5037318;28;45717;-90
2022/11/10 02:28:37;;;;;;;;;16.00;14.33;;;;;-145.03;100.00;62373.16;5036828;28;47335;-89
2022/11/10 02:31:05;;;;;;;;;15.00;14.00;;;;;-145.03;100.00;62373.16;5018679;28;45399;-90
2022/11/10 02:33:30;;;;;;;;;16.67;16.00;;;;;-145.03;100.00;62373.16;5035476;28;45414;-90
2022/11/10 02:35:56;;;;;;;;;14.67;12.67;;;;;-145.03;100.00;62373.16;5036025;28;45476;-89
2022/11/10 02:38:22;;;;;;;;;15.67;14.67;;;;;-145.03;100.00;62373.16;5036061;28;45438;-89
2022/11/10 02:40:50;;;;;;;;;14.67;14.67;;;;;-145.03;100.00;62373.16;5035681;28;45491;-88
2022/11/10 02:43:17;;;;;;;;;13.33;12.67;;;;;-145.03;100.00;62373.16;5035636;28;45454;-89
2022/11/10 02:45:43;;;;;;;;;14.33;14.33;;;;;-145.03;100.00;62373.16;5036810;28;45500;-90
2022/11/10 02:48:11;;;;;;;;;14.00;13.00;;;;;-145.03;100.00;62373.16;5036038;28;46399;-89
2022/11/10 02:50:36;;;;;;;;;18.33;14.00;;;;;-145.03;100.00;62373.16;5037011;28;45562;-89
2022/11/10 02:53:02;;;;;;;;;15.33;14.00;;;;;-145.03;100.00;62373.16;5035942;28;45530;-90
2022/11/10 02:55:28;;;;;;;;;15.00;15.00;;;;;-145.03;100.00;62373.16;5036201;28;45709;-90
2022/11/10 02:57:54;;;;;;;;;15.33;14.00;;;;;-145.03;100.00;62373.16;5035053;28;47043;-90
2022/11/10 03:00:19;;;;;;;;;14.00;13.00;;;;;-145.03;100.00;62373.16;5038427;28;45359;-90
2022/11/10 03:02:45;;;;;;;;;17.00;14.67;;;;;-145.03;100.00;62373.16;5037107;28;45449;-90
2022/11/10 03:05:11;;;;;;;;;12.00;8.33;;;;;-145.03;100.00;62373.16;5040770;28;45658;-90
2022/11/10 03:07:37;;;;;;;;;11.67;11.00;;;;;-145.03;100.00;62373.16;5035949;28;46616;-91
2022/11/10 03:10:04;;;;;;;;;12.67;11.00;;;;;-145.03;100.00;62373.16;5035961;28;45404;-91
2022/11/10 03:12:29;;;;;;;;;9.00;9.00;;;;;-145.03;100.00;62373.16;5035440;28;45948;-90
2022/11/10 03:14:55;;;;;;;;;2.00;0.00;;;;;-145.03;100.00;62373.16;5037116;28;45527;-90
2022/11/10 03:17:20;;;;;;;;;12.67;12.67;;;;;-145.03;100.00;62373.16;5036584;28;45413;-90
2022/11/10 03:19:45;;;;;;;;;9.67;9.67;;;;;-145.03;100.00;62373.16;5036749;28;47100;-91
2022/11/10 03:22:11;;;;;;;;;12.67;10.00;;;;;-145.03;100.00;62373.16;5037156;28;45457;-90
2022/11/10 03:24:36;;;;;;;;;10.33;10.00;;;;;-145.03;100.00;62373.16;5018034;28;45768;-90
2022/11/10 03:27:02;;;;;;;;;9.67;9.67;;;;;-145.03;100.00;62373.16;5017999;28;46847;-90
2022/11/10 03:29:28;;;;;;;;;11.33;11.33;;;;;-145.03;100.00;62373.16;5016518;28;45986;-90
2022/11/10 03:31:54;;;;;;;;;12.67;12.00;;;;;-145.03;100.00;62373.16;5031658;28;45710;-91
2022/11/10 03:34:19;;;;;;;;;15.67;11.00;;;;;-145.03;100.00;62373.16;5036007;28;45712;-90
2022/11/10 03:36:44;;;;;;;;;12.00;11.67;;;;;-145.03;100.00;62373.16;5034676;28;45712;-90
2022/11/10 03:39:10;;;;;;;;;14.00;12.00;;;;;-145.03;100.00;62373.16;5036624;28;45516;-90
2022/11/10 03:41:35;;;;;;;;;13.33;12.67;;;;;-145.03;100.00;62373.16;5034356;28;45465;-91
2022/11/10 03:44:01;;;;;;;;;17.00;13.67;;;;;-145.03;100.00;62373.16;5035770;28;45488;-91
2022/11/10 03:46:26;;;;;;;;;10.00;9.00;;;;;-145.03;100.00;62373.16;5034427;28;47028;-91
2022/11/10 03:48:51;;;;;;;;;11.00;9.33;;;;;-145.03;100.00;62373.16;5028759;28;45560;-91
2022/11/10 03:51:17;;;;;;;;;12.33;11.00;;;;;-145.03;100.00;62373.16;5033737;28;45479;-91
2022/11/10 03:53:43;;;;;;;;;10.67;10.33;;;;;-145.03;100.00;62373.16;5033871;28;45566;-91
2022/11/10 03:56:08;;;;;;;;;12.33;10.00;;;;;-145.03;100.00;62373.16;5013838;28;47328;-91
2022/11/10 03:58:33;;;;;;;;;9.00;8.00;;;;;-145.03;100.00;62373.16;5035705;28;45422;-91
2022/11/10 04:00:59;;;;;;;;;8.67;8.67;;;;;-145.03;100.00;62373.16;5034976;28;45428;-91
2022/11/10 04:03:24;;;;;;;;;10.33;9.67;;;;;-145.03;100.00;62373.16;5040093;28;45390;-90
2022/11/10 04:16:47;;;;;;;;;9.67;8.00;;;;;-145.03;100.00;62373.16;5033782;28;45708;-90
2022/11/10 04:19:13;;;;;;;;;9.00;7.33;;;;;-145.03;100.00;62373.16;5034130;28;45521;-91
2022/11/10 04:21:38;;;;;;;;;10.00;8.00;;;;;-145.03;100.00;62373.16;5035180;28;45497;-91
2022/11/10 04:24:04;;;;;;;;;8.00;7.00;;;;;-145.03;100.00;62373.16;5036440;28;45532;-90
2022/11/10 04:26:31;;;;;;;;;10.00;8.33;;;;;-145.03;100.00;62373.16;5017722;28;45569;-91
2022/11/10 04:29:00;;;;;;;;;7.00;7.00;;;;;-145.03;100.00;62373.16;5034192;28;45753;-91
2022/11/10 04:31:27;;;;;;;;;7.00;7.00;;;;;-145.03;100.00;62373.16;5034976;28;46132;-91
2022/11/10 04:33:54;;;;;;;;;8.00;6.00;;;;;-145.03;100.00;62373.16;5035004;28;45605;-91
2022/11/10 04:36:27;;;;;;;;;6.00;6.00;;;;;-145.03;100.00;62373.16;5034409;28;46118;-92
2022/11/10 04:38:56;;;;;;;;;8.33;7.33;;;;;-145.03;100.00;62373.16;5034093;28;45504;-91
2022/11/10 04:41:24;;;;;;;;;10.00;8.00;;;;;-145.03;100.00;62373.16;5016773;28;45718;-91
2022/11/10 04:43:50;;;;;;;;;7.00;7.00;;;;;-145.03;100.00;62373.16;5034682;28;45524;-91
2022/11/10 04:46:25;;;;;;;;;5.33;5.00;;;;;-145.03;100.00;62373.16;5034510;28;45659;-90
2022/11/10 04:48:51;;;;;;;;;10.67;6.00;;;;;-145.03;100.00;62373.16;5034137;28;45866;-90
2022/11/10 04:51:17;;;;;;;;;8.67;7.33;;;;;-145.03;100.00;62373.16;5038230;28;45476;-91
2022/11/10 04:53:43;;;;;;;;;5.00;5.00;;;;;-145.03;100.00;62373.16;5035006;28;45565;-91
2022/11/10 04:56:14;;;;;;;;;6.00;6.00;;;;;-145.03;100.00;62373.16;5016557;28;45609;-91
2022/11/10 04:58:39;;;;;;;;;6.00;6.00;;;;;-145.03;100.00;62373.16;5034273;28;45571;-89
2022/11/10 05:01:05;;;;;;;;;5.00;3.67;;;;;-145.03;100.00;62373.16;4989391;28;45405;-90
2022/11/10 05:03:31;;;;;;;;;7.33;6.00;;;;;-145.03;100.00;62373.16;5034153;28;45773;-90
2022/11/10 05:05:57;;;;;;;;;5.00;5.00;;;;;-145.03;100.00;62373.16;5016408;28;46477;-90
2022/11/10 05:08:22;;;;;;;;;6.00;6.00;;;;;-145.03;100.00;62373.16;5034850;28;45554;-90
2022/11/10 05:10:48;;;;;;;;;9.33;6.67;;;;;-145.03;100.00;62373.16;5036772;28;45538;-89
2022/11/10 05:13:13;;;;;;;;;6.00;6.00;;;;;-145.03;100.00;62373.16;5036210;28;45533;-77
2022/11/10 05:15:41;;;;;;;;;7.33;7.33;;;;;-145.03;100.00;62373.16;5032654;28;46678;-76
2022/11/10 05:18:07;;;;;;;;;8.33;6.00;;;;;-145.03;100.00;62373.16;5033398;28;45569;-75
2022/11/10 05:20:32;;;;;;;;;8.33;7.00;;;;;-145.03;100.00;62373.16;5031115;28;45461;-76
2022/11/10 05:25:43;;;;;;;;;6.00;5.67;;;;;-145.03;100.00;62373.16;5030986;28;45797;-76
2022/11/10 05:28:11;;;;;;;;;8.33;6.33;;;;;-145.03;100.00;62373.16;5035227;28;45365;-76
2022/11/10 05:30:38;;;;;;;;;6.33;5.67;;;;;-145.03;100.00;62373.16;5015637;28;45566;-76
2022/11/10 05:33:04;;;;;;;;;9.00;7.33;;;;;-145.03;100.00;62373.16;5033307;28;45538;-76
2022/11/10 05:35:31;;;;;;;;;6.67;6.67;;;;;-145.03;100.00;62373.16;5031513;28;45997;-76
2022/11/10 05:37:57;;;;;;;;;6.67;6.67;;;;;-145.03;100.00;62373.16;5035781;28;45611;-76
2022/11/10 05:40:22;;;;;;;;;8.67;7.00;;;;;-145.03;100.00;62373.16;5015929;28;45457;-76
2022/11/10 05:42:52;;;;;;;;;6.67;6.67;;;;;-145.03;100.00;62373.16;5033951;28;45571;-76
2022/11/10 05:45:20;;;;;;;;;8.00;7.00;;;;;-145.03;100.00;62373.16;5034448;28;45549;-76
2022/11/10 05:47:46;;;;;;;;;9.00;7.67;;;;;-145.03;100.00;62373.16;5034434;28;45606;-76
2022/11/10 05:50:12;;;;;;;;;8.33;6.00;;;;;-145.03;100.00;62373.16;5034992;28;45618;-76
2022/11/10 05:52:49;;;;;;;;;9.00;7.67;;;;;-145.03;100.00;62373.16;5033435;28;45299;-76
2022/11/10 05:55:18;;;;;;;;;9.00;7.67;;;;;-145.03;100.00;62373.16;5035349;28;45836;-76
2022/11/10 05:57:45;;;;;;;;;9.00;9.00;;;;;-145.03;100.00;62373.16;5036831;28;45503;-76
2022/11/10 06:00:12;;;;;;;;;7.00;7.00;;;;;-145.03;100.00;62373.16;5037004;28;45448;-76
2022/11/10 06:02:37;;;;;;;;;11.00;6.33;;;;;-145.03;100.00;62373.16;5038994;28;46907;-76
2022/11/10 06:05:03;;;;;;;;;8.00;8.00;;;;;-145.03;100.00;62373.16;5002446;28;47222;-78
2022/11/10 06:07:28;;;;;;;;;8.00;8.00;;;;;-145.03;100.00;62373.16;4998431;28;45499;-79
2022/11/10 06:09:54;;;;;;;;;6.67;6.67;;;;;-145.03;100.00;62373.16;5034433;28;45767;-83
2022/11/10 06:12:20;;;;;;;;;7.33;7.33;;;;;-145.03;100.00;62373.16;5035073;28;45529;-81
2022/11/10 06:14:46;;;;;;;;;6.67;6.33;;;;;-145.03;100.00;62373.16;5018192;28;46216;-79
2022/11/10 06:17:11;;;;;;;;;11.33;8.33;;;;;-145.03;100.00;62373.16;5019590;28;45602;-73
2022/11/10 06:19:37;;;;;;;;;10.33;7.00;;;;;-145.03;100.00;62373.16;5037380;28;45597;-74
2022/11/10 06:22:02;;;;;;;;;6.00;5.67;;;;;-145.03;100.00;62373.16;5035780;28;45612;-75
2022/11/10 06:24:28;;;;;;;;;12.33;7.00;;;;;-145.03;100.00;62373.16;5039246;28;47483;-76
2022/11/10 06:26:53;;;;;;;;;38.33;28.00;;;;;-145.03;100.00;62373.16;5034053;28;45445;-79
2022/11/10 06:29:18;;;;;;;;;12.67;11.33;;;;;-145.03;100.00;62373.16;5015586;28;45612;-77
2022/11/10 06:31:44;;;;;;;;;8.33;7.67;;;;;-145.03;100.00;62373.16;5041543;28;46771;-75
2022/11/10 06:34:09;;;;;;;;;9.00;9.00;;;;;-145.03;100.00;62373.16;5029004;28;45623;-71
2022/11/10 06:36:35;;;;;;;;;10.00;7.00;;;;;-145.03;100.00;62373.16;5012393;28;45733;-72
2022/11/10 06:39:00;;;;;;;;;10.00;9.00;;;;;-145.03;100.00;62373.16;5026241;28;45484;-72
2022/11/10 06:41:26;;;;;;;;;7.33;7.33;;;;;-145.03;100.00;62373.16;5037972;28;45485;-72
2022/11/10 06:43:51;;;;;;;;;9.67;7.00;;;;;-145.03;100.00;62373.16;5032444;28;46462;-73
2022/11/10 06:46:17;;;;;;;;;8.00;7.00;;;;;-145.03;100.00;62373.16;5017051;28;45579;-73
2022/11/10 06:48:42;;;;;;;;;9.00;8.00;;;;;-145.03;100.00;62373.16;5035210;28;45454;-72
2022/11/10 06:51:07;;;;;;;;;6.67;5.00;;;;;-145.03;100.00;62373.16;5038959;28;45480;-79
2022/11/10 06:53:33;;;;;;;;;8.00;6.67;;;;;-145.03;100.00;62373.16;5035272;28;45624;-72
2022/11/10 06:55:58;;;;;;;;;10.67;9.00;;;;;-145.03;100.00;62373.16;5015382;28;45454;-73
2022/11/10 06:58:24;;;;;;;;;6.33;6.33;;;;;-145.03;100.00;62373.16;5034460;28;45457;-73
2022/11/10 07:00:49;;;;;;;;;9.00;9.00;;;;;-145.03;100.00;62373.16;5018804;28;45419;-73
2022/11/10 07:03:15;;;;;;;;;11.33;9.00;;;;;-145.03;100.00;62373.16;5012292;28;47117;-73
2022/11/10 07:05:41;;;;;;;;;9.00;9.00;;;;;-145.03;100.00;62373.16;5036324;28;45350;-73
2022/11/10 07:08:08;;;;;;;;;9.33;8.67;;;;;-145.03;100.00;62373.16;5036818;28;45533;-73
2022/11/10 07:10:34;;;;;;;;;11.33;10.00;;;;;-145.03;100.00;62373.16;5018664;28;45478;-73
2022/11/10 07:13:02;;;;;;;;;22.00;22.00;;;;;-145.03;100.00;62373.16;5036972;28;47189;-73
2022/11/10 07:15:28;;;;;;;;;17.00;13.00;;;;;-145.03;100.00;62373.16;5036274;28;45425;-74
2022/11/10 07:17:53;;;;;;;;;13.67;10.33;;;;;-145.03;100.00;62373.16;5037688;28;45422;-73
2022/11/10 07:20:19;;;;;;;;;14.67;12.33;;;;;-145.03;100.00;62373.16;5036247;28;45394;-73
2022/11/10 07:22:45;;;;;;;;;15.33;15.33;;;;;-145.03;100.00;62373.16;5018409;28;48326;-73
2022/11/10 07:25:10;;;;;;;;;19.67;19.00;;;;;-145.03;100.00;62373.16;5020125;28;45430;-73
2022/11/10 07:27:36;;;;;;;;;17.00;15.67;;;;;-145.03;100.00;62373.16;5040408;28;45598;-73
2022/11/10 07:30:02;;;;;;;;;11.00;10.00;;;;;-145.03;100.00;62373.16;5025580;28;45765;-73
2022/11/10 07:32:27;;;;;;;;;11.00;9.33;;;;;-145.03;100.00;62373.16;5034606;28;47149;-73
2022/11/10 07:34:53;;;;;;;;;12.67;7.00;;;;;-145.03;100.00;62373.16;5036495;28;45774;-73
2022/11/10 07:37:18;;;;;;;;;13.33;11.00;;;;;-145.03;100.00;62373.16;5037059;28;45620;-73
2022/11/10 07:39:43;;;;;;;;;9.00;8.00;;;;;-145.03;100.00;62373.16;5034021;28;45473;-73
2022/11/10 07:42:09;;;;;;;;;9.33;7.67;;;;;-145.03;100.00;62373.16;5034601;28;46105;-73
2022/11/10 07:44:34;;;;;;;;;11.33;7.33;;;;;-145.03;100.00;62373.16;5035337;28;50965;-73
2022/11/10 07:46:59;;;;;;;;;8.00;6.67;;;;;-145.03;100.00;62373.16;5035975;28;45775;-73
2022/11/10 07:49:25;;;;;;;;;9.00;7.00;;;;;-145.03;100.00;62373.16;5036692;28;45485;-74
2022/11/10 07:51:50;;;;;;;;;7.00;7.00;;;;;-145.03;100.00;62373.16;5035083;28;45497;-74
2022/11/10 07:54:15;;;;;;;;;5.00;5.00;;;;;-145.03;100.00;62373.16;5036036;28;45425;-72
2022/11/10 07:56:41;;;;;;;;;20.00;20.00;;;;;-145.03;100.00;62373.16;5034089;28;45430;-74
2022/11/10 07:59:07;;;;;;;;;12.33;10.00;;;;;-145.03;100.00;62373.16;5035997;28;45448;-74
2022/11/10 08:01:32;;;;;;;;;32.00;30.67;;;;;-145.03;100.00;62373.16;5034277;28;46028;-73
2022/11/10 08:03:58;;;;;;;;;18.33;17.67;;;;;-145.03;100.00;62373.16;5035192;28;45618;-73
2022/11/10 08:06:24;;;;;;;;;15.67;15.00;;;;;-145.03;100.00;62373.16;5032438;28;45448;-73
2022/11/10 08:08:50;;;;;;;;;10.00;10.00;;;;;-145.03;100.00;62373.16;5033808;28;45326;-73
2022/11/10 08:11:15;;;;;;;;;10.00;7.33;;;;;-145.03;100.00;62373.16;5035021;28;46402;-73
2022/11/10 08:13:41;;;;;;;;;10.00;9.00;;;;;-145.03;100.00;62373.16;5036219;28;45802;-73
2022/11/10 08:16:06;;;;;;;;;9.00;6.00;;;;;-145.03;100.00;62373.16;5036123;28;45976;-73
2022/11/10 08:18:31;;;;;;;;;5.67;5.00;;;;;-145.03;100.00;62373.16;5035443;28;45414;-73
2022/11/10 08:21:00;;;;;;;;;5.00;5.00;;;;;-145.03;100.00;62373.16;5026888;28;46457;-73
2022/11/10 08:23:27;;;;;;;;;7.33;7.00;;;;;-145.03;100.00;62373.16;5036084;28;45522;-73
2022/11/10 08:25:53;;;;;;;;;5.00;5.00;;;;;-145.03;100.00;62373.16;5035517;28;45453;-74
2022/11/10 08:28:19;;;;;;;;;4.00;4.00;;;;;-145.03;100.00;62373.16;5015306;28;45362;-73
2022/11/10 08:30:46;;;;;;;;;6.33;5.33;;;;;-145.03;100.00;62373.16;5033843;28;45544;-73
2022/11/10 08:33:14;;;;;;;;;9.67;9.67;;;;;-145.03;100.00;62373.16;5020923;28;45656;-73
2022/11/10 08:35:42;;;;;;;;;9.67;8.67;;;;;-145.03;100.00;62373.16;5034534;28;45453;-74
2022/11/10 08:38:14;;;;;;;;;6.00;3.67;;;;;-145.03;100.00;62373.16;5032638;28;45540;-73
2022/11/10 08:40:40;;;;;;;;;6.00;5.00;;;;;-145.03;100.00;62373.16;5016885;28;47606;-74
2022/11/10 08:43:06;;;;;;;;;3.67;2.67;;;;;-145.03;100.00;62373.16;5034629;28;45472;-73
2022/11/10 08:45:33;;;;;;;;;6.00;4.67;;;;;-145.03;100.00;62373.16;5033817;28;45517;-73
2022/11/10 08:48:19;;;;;;;;;3.67;3.67;;;;;-145.03;100.00;62373.16;5017154;28;45433;-73
2022/11/10 08:50:45;;;;;;;;;6.33;5.67;;;;;-145.03;100.00;62373.16;5034353;28;46265;-74
2022/11/10 08:53:17;;;;;;;;;6.67;5.67;;;;;-145.03;100.00;62373.16;5016976;28;45506;-74
2022/11/10 08:55:43;;;;;;;;;3.67;3.67;;;;;-145.03;100.00;62373.16;5035984;28;45390;-73
2022/11/10 08:58:22;;;;;;;;;5.67;5.67;;;;;-145.03;100.00;62373.16;5034685;28;45375;-74
2022/11/10 09:00:48;;;;;;;;;5.33;5.33;;;;;-145.03;100.00;62373.16;5036369;28;46226;-74
2022/11/10 09:03:15;;;;;;;;;7.33;4.67;;;;;-145.03;100.00;62373.16;5032444;28;46247;-74
2022/11/10 09:05:42;;;;;;;;;5.67;4.67;;;;;-145.03;100.00;62373.16;5030032;28;45619;-73
2022/11/10 09:08:08;;;;;;;;;6.67;5.00;;;;;-145.03;100.00;62373.16;5030967;28;45447;-73
2022/11/10 09:10:36;;;;;;;;;9.33;6.00;;;;;-145.03;100.00;62373.16;5039658;28;45525;-73
2022/11/10 09:13:04;;;;;;;;;6.33;4.00;;;;;-145.03;100.00;62373.16;5034460;28;45691;-82
2022/11/10 09:15:31;;;;;;;;;4.00;4.00;;;;;-145.03;100.00;62373.16;5033625;28;45843;-80
2022/11/10 09:18:01;;;;;;;;;4.00;4.00;;;;;-145.03;100.00;62373.16;5025583;28;46376;-79
2022/11/10 09:20:28;;;;;;;;;5.33;4.00;;;;;-145.03;100.00;62373.16;5034939;28;47336;-79
2022/11/10 09:22:54;;;;;;;;;8.00;4.00;;;;;-145.03;100.00;62373.16;5036231;28;45621;-80
2022/11/10 09:25:20;;;;;;;;;5.00;3.67;;;;;-145.03;100.00;62373.16;5037348;28;45543;-88
2022/11/10 09:27:45;;;;;;;;;8.00;4.00;;;;;-145.03;100.00;62373.16;5037841;28;45965;-88
2022/11/10 09:30:11;;;;;;;;;8.67;5.67;;;;;-145.03;100.00;62373.16;5036945;28;46624;-88
2022/11/10 09:32:37;;;;;;;;;3.33;3.33;;;;;-145.03;100.00;62373.16;5036526;28;45890;-87
2022/11/10 09:35:03;;;;;;;;;5.33;4.67;;;;;-145.03;100.00;62373.16;5022191;28;45396;-87
2022/11/10 09:37:28;;;;;;;;;4.67;4.00;;;;;-145.03;100.00;62373.16;5036488;28;45493;-89
2022/11/10 09:39:54;;;;;;;;;8.33;3.33;;;;;-145.03;100.00;62373.16;5038092;28;46043;-89
2022/11/10 09:42:43;;;;;;;;;4.00;2.00;;;;;-145.03;100.00;62373.16;5036690;28;45543;-83
2022/11/10 09:45:25;;;;;;;;;2.75;2.75;;;;;-145.03;100.00;62373.16;5032731;28;45499;-83
2022/11/10 09:48:12;;;;;;;;;2.00;2.00;;;;;-145.03;100.00;62373.16;5020853;28;45683;-84
2022/11/10 09:50:52;;;;;;;;;3.00;1.67;;;;;-145.03;100.00;62373.16;5038390;28;46492;-83
2022/11/10 09:53:33;;;;;;;;;4.50;3.00;;;;;-145.03;100.00;62373.16;5036319;28;45786;-78
2022/11/10 09:56:02;;;;;;;;;4.25;3.00;;;;;-145.03;100.00;62373.16;5037328;28;45563;-80
2022/11/10 09:58:41;;;;;;;;;4.33;2.00;;;;;-145.03;100.00;62373.16;5037243;28;45489;-80
2022/11/10 10:01:12;;;;;;;;;4.00;2.00;;;;;-145.03;100.00;62373.16;5038568;28;46091;-76
2022/11/10 10:03:45;;;;;;;;;7.67;4.33;;;;;-145.03;100.00;62373.16;5033779;28;45654;-76
2022/11/10 10:06:13;;;;;;;;;3.67;3.33;;;;;-145.03;100.00;62373.16;5033407;28;45688;-77
2022/11/10 10:08:51;;;;;;;;;5.50;2.25;;;;;-145.03;100.00;62373.16;5038179;28;45487;-78
2022/11/10 10:11:25;;;;;;;;;3.00;3.00;;;;;-145.03;100.00;62373.16;5035590;28;45638;-77
2022/11/10 10:14:04;;;;;;;;;2.00;2.00;;;;;-145.03;100.00;62373.16;5036279;28;45581;-77
2022/11/10 10:16:57;;;;;;;;;2.50;2.00;;;;;-145.03;100.00;62373.16;5033723;28;45561;-77
2022/11/10 10:20:10;;;;;;;;;2.75;2.75;;;;;-145.03;100.00;62373.16;5037517;28;45771;-78
2022/11/10 10:22:48;;;;;;;;;3.25;3.25;;;;;-145.03;100.00;62373.16;4975311;28;45443;-78
2022/11/10 10:25:20;;;;;;;;;5.00;2.00;;;;;-145.03;100.00;62373.16;4975705;28;46151;-78
2022/11/10 10:27:49;;;;;;;;;3.00;3.00;;;;;-145.03;100.00;62373.16;4975210;28;45819;-78
2022/11/10 10:30:17;;;;;;;;;1.00;1.00;;;;;-145.03;100.00;62373.16;4975765;28;45523;-77
2022/11/10 10:32:43;;;;;;;;;3.00;2.00;;;;;-145.03;100.00;62373.16;4963770;28;47865;-77
2022/11/10 10:35:16;;;;;;;;;3.75;3.00;;;;;-145.03;100.00;62373.16;4972119;28;45604;-78
2022/11/10 10:37:50;;;;;;;;;4.00;2.00;;;;;-145.03;100.00;62373.16;4973692;28;45542;-78
2022/11/10 10:40:18;;;;;;;;;2.50;2.50;;;;;-145.03;100.00;62373.16;4964187;28;45428;-78
2022/11/10 10:42:44;;;;;;;;;1.25;1.25;;;;;-145.03;100.00;62373.16;4976055;28;45667;-78
2022/11/10 10:45:19;;;;;;;;;2.00;2.00;;;;;-145.03;100.00;62373.16;4958535;28;45552;-79
2022/11/10 10:47:46;;;;;;;;;1.75;1.00;;;;;-145.03;100.00;62373.16;4975849;28;45804;-78
2022/11/10 10:50:24;;;;;;;;;3.00;1.50;;;;;-145.03;100.00;62373.16;4961444;28;45473;-78
2022/11/10 10:53:16;;;;;;;;;2.00;2.00;;;;;-145.03;100.00;62373.16;4955057;28;46402;-78
2022/11/10 10:56:31;;;;;;;;;1.75;1.00;;;;;-145.03;100.00;62373.16;4954280;28;45585;-79
2022/11/10 10:58:59;;;;;;;;;4.00;4.00;;;;;-145.03;100.00;62373.16;5006290;28;45387;-79
2022/11/10 11:01:32;;;;;;;;;8.33;6.67;;;;;-145.03;100.00;62373.16;5016463;28;45494;-78
2022/11/10 11:03:59;;;;;;;;;2.75;2.75;;;;;-145.03;100.00;62373.16;5000124;28;46089;-79
2022/11/10 11:06:34;;;;;;;;;4.33;3.00;;;;;-145.03;100.00;62373.16;5017022;28;45385;-78
2022/11/10 11:09:00;;;;;;;;;2.00;2.00;;;;;-145.03;100.00;62373.16;5013179;28;45995;-79
2022/11/10 11:11:51;;;;;;;;;8.00;3.00;;;;;-145.03;100.00;62373.16;5015141;28;45425;-79
2022/11/10 11:14:24;;;;;;;;;1.50;1.50;;;;;-145.03;100.00;62373.16;5013292;28;46034;-79
2022/11/10 11:16:49;;;;;;;;;0.00;0.00;;;;;-145.03;100.00;62373.16;5017012;28;45717;-78
2022/11/10 11:19:17;;;;;;;;;1.00;1.00;;;;;-145.03;100.00;62373.16;5015720;28;45368;-78
2022/11/10 11:21:55;;;;;;;;;3.00;2.00;;;;;-145.03;100.00;62373.16;5015518;28;45496;-79